Time;durP1;ratioP1;P1;durP2;ratioP2;P2;SDS_P1;SDS_P2;PMS_P1;PMS_P2;Temp;Humidity;BMP_temperature;BMP_pressure;BME280_temperature;BME280_humidity;BME280_pressure;Samples;Min_cycle;Max_cycle;Signal;HPM_P1;HPM_P2
2022/10/21 00:01:49;;;;;;;;;;;19.70;99.90;;;;;;5032280;28;19967;-76
2022/10/21 00:04:15;;;;;;;;;;;19.70;99.90;;;;;;5032171;28;19909;-72
2022/10/21 00:06:42;;;;;;;;;;;19.70;99.90;;;;;;5031868;28;19917;-71
2022/10/21 00:09:08;;;;;;;;;;;19.70;99.90;;;;;;5032055;28;19992;-73
2022/10/21 00:11:35;;;;;;;;;;;19.70;99.90;;;;;;5031733;28;19968;-71
2022/10/21 00:14:02;;;;;;;;;;;19.70;99.90;;;;;;5032481;28;19920;-69
2022/10/21 00:16:28;;;;;;;;;;;19.70;99.90;;;;;;5031525;28;19916;-74
2022/10/21 00:18:55;;;;;;;;;;;19.70;99.90;;;;;;5031814;28;19956;-69
2022/10/21 00:21:22;;;;;;;;;;;19.70;99.90;;;;;;5032078;28;19936;-71
2022/10/21 00:23:49;;;;;;;;;;;19.70;99.90;;;;;;5032091;28;19913;-71
2022/10/21 00:26:16;;;;;;;;;;;19.80;99.90;;;;;;5031152;28;20034;-74
2022/10/21 00:28:43;;;;;;;;;;;19.90;99.90;;;;;;5032113;28;19921;-74
2022/10/21 00:31:11;;;;;;;;;;;20.00;99.90;;;;;;5031759;28;19917;-76
2022/10/21 00:33:38;;;;;;;;;;;20.10;99.90;;;;;;5032137;28;19909;-72
2022/10/21 00:36:13;;;;;;;;;;;20.20;99.90;;;;;;5031636;28;20378;-70
2022/10/21 00:38:40;;;;;;;;;;;20.40;99.90;;;;;;5031897;28;20378;-78
2022/10/21 00:41:07;;;;;;;;;;;20.50;99.90;;;;;;5031518;28;19919;-78
2022/10/21 00:43:51;;;;;;;;;;;20.50;99.90;;;;;;5031854;28;19909;-76
2022/10/21 00:46:19;;;;;;;;;;;20.50;99.90;;;;;;5031617;28;20049;-71
2022/10/21 00:48:52;;;;;;;;;;;20.60;99.90;;;;;;5031750;28;20349;-76
2022/10/21 00:51:18;;;;;;;;;;;20.50;99.90;;;;;;5032105;28;19998;-78
2022/10/21 00:53:46;;;;;;;;;;;20.50;99.90;;;;;;5031927;28;19917;-73
2022/10/21 00:56:16;;;;;;;;;;;20.50;99.90;;;;;;5031547;28;20063;-78
2022/10/21 00:58:43;;;;;;;;;;;20.50;99.90;;;;;;5031597;28;20397;-79
2022/10/21 01:01:10;;;;;;;;;;;20.60;99.90;;;;;;5032762;28;20279;-78
2022/10/21 01:03:36;;;;;;;;;;;20.50;99.90;;;;;;5032122;28;19916;-77
2022/10/21 01:06:06;;;;;;;;;;;20.50;99.90;;;;;;5031202;28;20007;-77
2022/10/21 01:08:33;;;;;;;;;;;20.40;99.90;;;;;;5029963;28;20310;-78
2022/10/21 01:11:00;;;;;;;;;;;20.40;99.90;;;;;;5029644;28;19967;-77
2022/10/21 01:13:38;;;;;;;;;;;20.40;99.90;;;;;;5029761;28;19909;-80
2022/10/21 01:16:17;;;;;;;;;;;20.40;99.90;;;;;;5029362;28;19995;-80
2022/10/21 01:18:47;;;;;;;;;;;20.40;99.90;;;;;;5029581;28;19918;-79
2022/10/21 01:21:16;;;;;;;;;;;20.40;99.90;;;;;;5029896;28;19917;-79
2022/10/21 01:23:46;;;;;;;;;;;20.40;99.90;;;;;;5029833;28;19909;-77
2022/10/21 01:26:29;;;;;;;;;;;20.40;99.90;;;;;;5029354;28;19913;-78
2022/10/21 01:29:05;;;;;;;;;;;20.40;99.90;;;;;;5028270;28;19909;-78
2022/10/21 01:31:44;;;;;;;;;;;20.40;99.90;;;;;;5029782;28;19971;-78
2022/10/21 01:34:17;;;;;;;;;;;20.40;99.90;;;;;;5029855;28;20004;-78
2022/10/21 01:37:01;;;;;;;;;;;20.30;99.90;;;;;;5031085;28;19916;-77
2022/10/21 01:39:28;;;;;;;;;;;20.30;99.90;;;;;;5035267;28;19917;-78
2022/10/21 01:41:59;;;;;;;;;;;20.30;99.90;;;;;;5035071;28;19909;-77
2022/10/21 01:44:39;;;;;;;;;;;20.40;99.90;;;;;;5035119;28;19929;-79
2022/10/21 01:47:08;;;;;;;;;;;20.40;99.90;;;;;;5033997;28;19955;-70
2022/10/21 01:49:40;;;;;;;;;;;20.50;99.90;;;;;;5035061;28;19909;-74
2022/10/21 01:52:07;;;;;;;;;;;20.50;99.90;;;;;;5034822;28;19913;-76
2022/10/21 01:54:36;;;;;;;;;;;20.50;99.90;;;;;;5034998;28;19921;-73
2022/10/21 01:57:04;;;;;;;;;;;20.60;99.90;;;;;;5034032;28;19913;-75
2022/10/21 01:59:32;;;;;;;;;;;20.70;99.90;;;;;;5034686;28;19921;-72
2022/10/21 02:02:02;;;;;;;;;;;20.80;99.90;;;;;;5034695;28;20362;-72
2022/10/21 02:04:31;;;;;;;;;;;20.80;99.90;;;;;;5034823;28;20019;-75
2022/10/21 02:06:58;;;;;;;;;;;20.90;99.90;;;;;;5034019;28;20393;-79
2022/10/21 02:09:26;;;;;;;;;;;21.00;99.90;;;;;;5034721;28;19913;-77
2022/10/21 02:11:55;;;;;;;;;;;21.00;99.90;;;;;;5034471;28;19913;-77
2022/10/21 02:14:30;;;;;;;;;;;21.10;99.90;;;;;;5034293;28;19910;-79
2022/10/21 02:16:57;;;;;;;;;;;21.10;99.90;;;;;;5033909;28;19913;-79
2022/10/21 02:19:25;;;;;;;;;;;21.20;99.90;;;;;;5034443;28;19917;-75
2022/10/21 02:21:52;;;;;;;;;;;21.30;99.90;;;;;;5034224;28;19939;-74
2022/10/21 02:24:21;;;;;;;;;;;21.30;99.90;;;;;;5034264;28;19913;-78
2022/10/21 02:26:48;;;;;;;;;;;21.30;99.90;;;;;;5033411;28;19995;-76
2022/10/21 02:29:18;;;;;;;;;;;21.20;99.90;;;;;;5034174;28;19909;-77
2022/10/21 02:31:47;;;;;;;;;;;21.30;99.90;;;;;;5034174;28;19917;-75
2022/10/21 02:34:17;;;;;;;;;;;21.40;99.90;;;;;;5034002;28;20328;-72
2022/10/21 02:36:52;;;;;;;;;;;21.40;99.90;;;;;;5033615;28;19913;-76
2022/10/21 02:39:22;;;;;;;;;;;21.50;99.90;;;;;;5034007;28;19964;-68
2022/10/21 02:41:49;;;;;;;;;;;21.60;99.90;;;;;;5033918;28;19920;-71
2022/10/21 02:44:16;;;;;;;;;;;21.70;99.90;;;;;;5033902;28;19913;-72
2022/10/21 02:46:43;;;;;;;;;;;21.70;99.90;;;;;;5033543;28;20320;-78
2022/10/21 02:49:10;;;;;;;;;;;21.60;99.90;;;;;;5033128;28;19921;-74
2022/10/21 02:51:37;;;;;;;;;;;21.50;99.90;;;;;;5034006;28;19924;-70
2022/10/21 02:54:04;;;;;;;;;;;21.40;99.90;;;;;;5033606;28;19909;-70
2022/10/21 02:56:30;;;;;;;;;;;21.30;99.90;;;;;;5033236;28;19949;-69
2022/10/21 02:58:57;;;;;;;;;;;21.20;99.90;;;;;;5033363;28;19921;-70
2022/10/21 03:01:24;;;;;;;;;;;21.10;99.90;;;;;;5033638;28;19963;-70
2022/10/21 03:03:50;;;;;;;;;;;21.00;99.90;;;;;;5033392;28;19949;-76
2022/10/21 03:06:18;;;;;;;;;;;20.90;99.90;;;;;;5032942;28;19913;-76
2022/10/21 03:08:45;;;;;;;;;;;20.90;99.90;;;;;;5033287;28;20337;-75
2022/10/21 03:11:11;;;;;;;;;;;20.90;99.90;;;;;;5033292;28;20410;-76
2022/10/21 03:13:38;;;;;;;;;;;20.80;99.90;;;;;;5033467;28;19996;-69
2022/10/21 03:16:05;;;;;;;;;;;20.80;99.90;;;;;;5032487;28;19909;-71
2022/10/21 03:18:31;;;;;;;;;;;20.80;99.90;;;;;;5033262;28;20378;-74
2022/10/21 03:20:58;;;;;;;;;;;20.80;99.90;;;;;;5033037;28;20391;-72
2022/10/21 03:23:25;;;;;;;;;;;20.80;99.90;;;;;;5033174;28;19909;-71
2022/10/21 03:25:51;;;;;;;;;;;20.70;99.90;;;;;;5032643;28;19936;-76
2022/10/21 03:28:18;;;;;;;;;;;20.70;99.90;;;;;;5033226;28;19909;-74
2022/10/21 03:30:45;;;;;;;;;;;20.70;99.90;;;;;;5032979;28;19916;-76
2022/10/21 03:33:11;;;;;;;;;;;20.60;99.90;;;;;;5033052;28;19913;-70
2022/10/21 03:35:38;;;;;;;;;;;20.70;99.90;;;;;;5033114;28;19909;-71
2022/10/21 03:38:05;;;;;;;;;;;20.70;99.90;;;;;;5032697;28;19925;-77
2022/10/21 03:40:31;;;;;;;;;;;20.80;99.90;;;;;;5032765;28;19928;-74
2022/10/21 03:42:58;;;;;;;;;;;20.80;99.90;;;;;;5032322;28;19916;-75
2022/10/21 03:45:26;;;;;;;;;;;20.90;99.90;;;;;;5032202;28;19939;-79
2022/10/21 03:47:52;;;;;;;;;;;21.00;99.90;;;;;;5032213;28;20334;-73
2022/10/21 03:50:19;;;;;;;;;;;21.00;99.90;;;;;;5032718;28;19996;-72
2022/10/21 03:52:46;;;;;;;;;;;21.10;99.90;;;;;;5032684;28;19990;-73
2022/10/21 03:55:13;;;;;;;;;;;21.10;99.90;;;;;;5048272;28;20340;-76
2022/10/21 03:57:39;;;;;;;;;;;21.30;99.90;;;;;;5032712;28;19917;-68
2022/10/21 04:00:06;;;;;;;;;;;21.30;99.90;;;;;;5031905;28;19947;-69
2022/10/21 04:02:33;;;;;;;;;;;21.20;99.90;;;;;;5032495;28;20489;-70
2022/10/21 04:04:59;;;;;;;;;;;21.20;99.90;;;;;;5047502;28;19917;-70
2022/10/21 04:07:27;;;;;;;;;;;21.10;99.90;;;;;;5032746;28;19909;-69
2022/10/21 04:09:53;;;;;;;;;;;21.10;99.90;;;;;;5047396;28;19917;-76
2022/10/21 04:12:20;;;;;;;;;;;20.90;99.90;;;;;;5032476;28;19909;-69
2022/10/21 04:14:46;;;;;;;;;;;20.80;99.90;;;;;;5032234;28;19917;-70
2022/10/21 04:17:13;;;;;;;;;;;20.80;99.90;;;;;;5031991;28;20000;-76
2022/10/21 04:19:42;;;;;;;;;;;20.90;99.90;;;;;;5063522;28;20265;-73
2022/10/21 04:22:09;;;;;;;;;;;20.90;99.90;;;;;;5032337;28;19909;-70
2022/10/21 04:24:35;;;;;;;;;;;21.00;99.90;;;;;;5032005;28;20397;-69
2022/10/21 04:27:02;;;;;;;;;;;21.00;99.90;;;;;;5031372;28;19917;-69
2022/10/21 04:29:29;;;;;;;;;;;21.00;99.90;;;;;;5032037;28;19909;-70
2022/10/21 04:31:55;;;;;;;;;;;21.00;99.90;;;;;;5032092;28;19920;-68
2022/10/21 04:34:22;;;;;;;;;;;21.10;99.90;;;;;;5032124;28;19917;-68
2022/10/21 04:36:49;;;;;;;;;;;21.20;99.90;;;;;;5031516;28;19916;-69
2022/10/21 04:39:16;;;;;;;;;;;21.30;99.90;;;;;;5031823;28;19921;-71
2022/10/21 04:41:44;;;;;;;;;;;21.30;99.90;;;;;;5031888;28;19963;-70
2022/10/21 04:44:11;;;;;;;;;;;21.40;99.90;;;;;;5032160;28;20002;-69
2022/10/21 04:46:37;;;;;;;;;;;21.40;99.90;;;;;;5031689;28;19920;-70
2022/10/21 04:49:05;;;;;;;;;;;21.40;99.90;;;;;;5031621;28;19927;-68
2022/10/21 04:51:31;;;;;;;;;;;21.30;99.90;;;;;;5032040;28;19950;-69
2022/10/21 04:53:58;;;;;;;;;;;21.40;99.90;;;;;;5031881;28;19915;-79
2022/10/21 04:56:25;;;;;;;;;;;21.40;99.90;;;;;;5031916;28;19937;-69
2022/10/21 04:58:51;;;;;;;;;;;21.60;99.90;;;;;;5030528;28;19967;-69
2022/10/21 05:01:18;;;;;;;;;;;21.70;99.90;;;;;;5032050;28;19913;-68
2022/10/21 05:03:44;;;;;;;;;;;21.70;99.90;;;;;;5031981;28;19917;-71
2022/10/21 05:06:11;;;;;;;;;;;21.70;99.90;;;;;;5031613;28;19917;-67
2022/10/21 05:08:38;;;;;;;;;;;21.80;99.90;;;;;;5031535;28;20282;-68
2022/10/21 05:11:04;;;;;;;;;;;21.80;99.90;;;;;;5032636;28;20366;-69
2022/10/21 05:13:32;;;;;;;;;;;21.70;99.90;;;;;;5035786;28;20013;-73
2022/10/21 05:16:00;;;;;;;;;;;21.60;99.90;;;;;;5035321;28;20008;-73
2022/10/21 05:18:26;;;;;;;;;;;21.50;99.90;;;;;;5035382;28;19917;-70
2022/10/21 05:20:53;;;;;;;;;;;21.40;99.90;;;;;;5035206;28;20278;-68
2022/10/21 05:23:20;;;;;;;;;;;21.40;99.90;;;;;;5035427;28;20007;-68
2022/10/21 05:25:47;;;;;;;;;;;21.40;99.90;;;;;;5034846;28;19909;-70
2022/10/21 05:28:14;;;;;;;;;;;21.40;99.90;;;;;;5035204;28;19996;-68
2022/10/21 05:30:41;;;;;;;;;;;21.40;99.90;;;;;;5035317;28;19932;-69
2022/10/21 05:33:07;;;;;;;;;;;21.30;99.90;;;;;;5035064;28;19920;-69
2022/10/21 05:35:34;;;;;;;;;;;21.20;99.90;;;;;;5034902;28;19913;-71
2022/10/21 05:38:01;;;;;;;;;;;21.20;99.90;;;;;;5033544;28;19913;-69
2022/10/21 05:40:27;;;;;;;;;;;21.00;99.90;;;;;;5034881;28;19910;-70
2022/10/21 05:42:54;;;;;;;;;;;21.00;99.90;;;;;;5034718;28;19920;-71
2022/10/21 05:45:21;;;;;;;;;;;21.00;99.90;;;;;;5034885;28;19960;-68
2022/10/21 05:47:48;;;;;;;;;;;20.90;99.90;;;;;;5034476;28;19946;-69
2022/10/21 05:50:15;;;;;;;;;;;20.90;99.90;;;;;;5034623;28;19921;-68
2022/10/21 05:52:42;;;;;;;;;;;20.80;99.90;;;;;;5032276;28;19913;-68
2022/10/21 05:55:08;;;;;;;;;;;20.70;99.90;;;;;;5032577;28;20016;-69
2022/10/21 05:57:35;;;;;;;;;;;20.70;99.90;;;;;;5032625;28;19917;-70
2022/10/21 06:00:03;;;;;;;;;;;20.80;99.90;;;;;;5032649;28;20668;-68
2022/10/21 06:02:30;;;;;;;;;;;20.70;99.90;;;;;;5032677;28;19921;-69
2022/10/21 06:04:57;;;;;;;;;;;20.70;99.90;;;;;;5032013;28;19913;-70
2022/10/21 06:07:24;;;;;;;;;;;20.70;99.90;;;;;;5032762;28;19916;-70
2022/10/21 06:09:50;;;;;;;;;;;20.70;99.90;;;;;;5032825;28;19951;-70
2022/10/21 06:12:17;;;;;;;;;;;20.70;99.90;;;;;;5033138;28;19909;-70
2022/10/21 06:14:44;;;;;;;;;;;20.60;99.90;;;;;;5032932;28;19916;-74
2022/10/21 06:17:10;;;;;;;;;;;20.60;99.90;;;;;;5031685;28;19913;-70
2022/10/21 06:19:37;;;;;;;;;;;20.60;99.90;;;;;;5032135;28;19981;-73
2022/10/21 06:22:04;;;;;;;;;;;20.60;99.90;;;;;;5031961;28;19910;-74
2022/10/21 06:24:31;;;;;;;;;;;20.60;99.90;;;;;;5031606;28;20304;-72
2022/10/21 06:26:58;;;;;;;;;;;20.50;99.90;;;;;;5031724;28;20092;-77
2022/10/21 06:29:26;;;;;;;;;;;20.50;99.90;;;;;;5032065;28;19936;-77
2022/10/21 06:31:53;;;;;;;;;;;20.40;99.90;;;;;;5031534;28;19985;-70
2022/10/21 06:34:19;;;;;;;;;;;20.40;99.90;;;;;;5031699;28;19936;-71
2022/10/21 06:36:46;;;;;;;;;;;20.30;99.90;;;;;;5031513;28;20264;-69
2022/10/21 06:39:13;;;;;;;;;;;20.30;99.90;;;;;;5031775;28;19991;-68
2022/10/21 06:41:39;;;;;;;;;;;20.30;99.90;;;;;;5031982;28;19913;-69
2022/10/21 06:44:06;;;;;;;;;;;20.20;99.90;;;;;;5031647;28;19944;-69
2022/10/21 06:46:33;;;;;;;;;;;20.10;99.90;;;;;;5031560;28;19931;-69
2022/10/21 06:48:59;;;;;;;;;;;20.10;99.90;;;;;;5031350;28;20347;-70
2022/10/21 06:51:28;;;;;;;;;;;20.10;99.90;;;;;;5031616;28;20385;-70
2022/10/21 06:53:56;;;;;;;;;;;20.10;99.90;;;;;;5031636;28;19919;-70
2022/10/21 06:56:23;;;;;;;;;;;20.00;99.90;;;;;;5030955;28;19916;-69
2022/10/21 06:58:50;;;;;;;;;;;20.00;99.90;;;;;;5031538;28;19921;-69
2022/10/21 07:01:21;;;;;;;;;;;19.90;99.90;;;;;;5031402;28;19910;-71
2022/10/21 07:03:48;;;;;;;;;;;19.90;99.90;;;;;;5031408;28;20409;-71
2022/10/21 07:06:14;;;;;;;;;;;19.90;99.90;;;;;;5031210;28;20460;-79
2022/10/21 07:08:42;;;;;;;;;;;19.80;99.90;;;;;;5031390;28;19999;-76
2022/10/21 07:11:11;;;;;;;;;;;19.80;99.90;;;;;;5031261;28;20002;-78
2022/10/21 07:13:37;;;;;;;;;;;19.80;99.90;;;;;;5031316;28;20008;-78
2022/10/21 07:16:05;;;;;;;;;;;19.70;99.90;;;;;;5031081;28;20023;-78
2022/10/21 07:18:33;;;;;;;;;;;19.70;99.90;;;;;;5031276;28;19932;-76
2022/10/21 07:21:10;;;;;;;;;;;19.70;99.90;;;;;;5031114;28;19916;-79
2022/10/21 07:23:36;;;;;;;;;;;19.70;99.90;;;;;;5030895;28;19913;-71
2022/10/21 07:26:03;;;;;;;;;;;19.70;99.90;;;;;;5031007;28;19962;-78
2022/10/21 07:28:30;;;;;;;;;;;19.70;99.90;;;;;;5030131;28;20260;-74
2022/10/21 07:30:57;;;;;;;;;;;19.70;99.90;;;;;;5024619;28;19913;-79
2022/10/21 07:33:25;;;;;;;;;;;19.60;99.90;;;;;;5024693;28;19913;-79
2022/10/21 07:35:51;;;;;;;;;;;19.60;99.90;;;;;;5023058;28;20145;-79
2022/10/21 07:38:18;;;;;;;;;;;19.50;99.90;;;;;;5024596;28;20485;-79
2022/10/21 07:40:45;;;;;;;;;;;19.50;99.90;;;;;;5024376;28;19913;-74
2022/10/21 07:43:11;;;;;;;;;;;19.60;99.90;;;;;;5024501;28;19920;-69
2022/10/21 07:45:40;;;;;;;;;;;19.60;99.90;;;;;;5024385;28;19917;-70
2022/10/21 07:48:07;;;;;;;;;;;19.50;99.90;;;;;;5023995;28;20011;-70
2022/10/21 07:50:34;;;;;;;;;;;19.60;99.90;;;;;;5023939;28;19956;-75
2022/10/21 07:53:01;;;;;;;;;;;19.50;99.90;;;;;;5038636;28;19967;-75
2022/10/21 07:55:28;;;;;;;;;;;19.50;99.90;;;;;;5023922;28;19917;-75
2022/10/21 07:57:55;;;;;;;;;;;19.50;99.90;;;;;;5023962;28;20264;-70
2022/10/21 08:00:22;;;;;;;;;;;19.50;99.90;;;;;;5024307;28;19917;-68
2022/10/21 08:02:52;;;;;;;;;;;19.50;99.90;;;;;;5023848;28;19913;-69
2022/10/21 08:05:18;;;;;;;;;;;19.50;99.90;;;;;;5023706;28;19912;-70
2022/10/21 08:07:45;;;;;;;;;;;19.50;99.90;;;;;;5023949;28;20295;-69
2022/10/21 08:10:12;;;;;;;;;;;19.50;99.90;;;;;;5024052;28;19979;-70
2022/10/21 08:12:38;;;;;;;;;;;19.50;99.90;;;;;;5024385;28;19988;-68
2022/10/21 08:15:05;;;;;;;;;;;19.50;99.90;;;;;;5023433;28;20022;-68
2022/10/21 08:17:32;;;;;;;;;;;19.50;99.90;;;;;;5022920;28;19956;-74
2022/10/21 08:19:58;;;;;;;;;;;19.40;99.90;;;;;;5022215;28;19975;-68
2022/10/21 08:22:25;;;;;;;;;;;19.40;99.90;;;;;;5029368;28;20003;-69
2022/10/21 08:24:52;;;;;;;;;;;19.30;99.90;;;;;;5031545;28;19913;-69
2022/10/21 08:27:18;;;;;;;;;;;19.30;99.90;;;;;;5031836;28;20378;-72
2022/10/21 08:29:46;;;;;;;;;;;19.30;99.90;;;;;;5032187;28;19956;-71
2022/10/21 08:32:13;;;;;;;;;;;19.30;99.90;;;;;;5032189;28;20347;-70
2022/10/21 08:34:40;;;;;;;;;;;19.30;99.90;;;;;;5032158;28;20240;-68
2022/10/21 08:37:06;;;;;;;;;;;19.20;99.90;;;;;;5031702;28;19913;-68
2022/10/21 08:39:33;;;;;;;;;;;19.30;99.90;;;;;;5031765;28;19918;-69
2022/10/21 08:42:14;;;;;;;;;;;19.20;99.90;;;;;;5032046;28;19936;-70
2022/10/21 08:44:50;;;;;;;;;;;19.20;99.90;;;;;;5031890;28;20000;-68
2022/10/21 08:47:17;;;;;;;;;;;19.20;99.90;;;;;;5034612;28;19913;-69
2022/10/21 08:49:58;;;;;;;;;;;19.20;99.90;;;;;;5035998;28;20031;-69
2022/10/21 08:52:34;;;;;;;;;;;19.20;99.90;;;;;;5036050;28;20318;-71
2022/10/21 08:55:02;;;;;;;;;;;19.20;99.90;;;;;;5035893;28;20316;-68
2022/10/21 08:57:30;;;;;;;;;;;19.10;99.90;;;;;;5035755;28;19913;-68
2022/10/21 08:59:57;;;;;;;;;;;19.10;99.90;;;;;;5036005;28;19948;-69
2022/10/21 09:02:23;;;;;;;;;;;19.10;99.90;;;;;;5035712;28;19913;-69
2022/10/21 09:04:59;;;;;;;;;;;19.10;99.90;;;;;;5035832;28;19909;-69
2022/10/21 09:07:49;;;;;;;;;;;19.10;99.90;;;;;;5035423;28;19913;-68
2022/10/21 09:10:35;;;;;;;;;;;19.10;99.90;;;;;;5037708;28;19916;-68
2022/10/21 09:13:12;;;;;;;;;;;19.10;99.90;;;;;;5038242;28;19940;-68
2022/10/21 09:15:50;;;;;;;;;;;19.10;99.90;;;;;;5035409;28;19913;-68
2022/10/21 09:18:35;;;;;;;;;;;19.10;99.90;;;;;;5035387;28;19924;-68
2022/10/21 09:21:14;;;;;;;;;;;19.10;99.90;;;;;;5035396;28;19963;-67
2022/10/21 09:24:00;;;;;;;;;;;19.10;99.90;;;;;;5035359;28;19915;-69
2022/10/21 09:26:38;;;;;;;;;;;19.10;99.90;;;;;;5037845;28;19913;-67
2022/10/21 09:29:20;;;;;;;;;;;19.10;99.90;;;;;;5035139;28;20272;-68
2022/10/21 09:31:47;;;;;;;;;;;19.10;99.90;;;;;;5035362;28;19920;-68
2022/10/21 09:34:34;;;;;;;;;;;19.10;99.90;;;;;;5035415;28;20321;-68
2022/10/21 09:37:01;;;;;;;;;;;19.20;99.90;;;;;;5034390;28;19963;-68
2022/10/21 09:39:45;;;;;;;;;;;19.20;99.90;;;;;;5034895;28;19923;-68
2022/10/21 09:42:12;;;;;;;;;;;19.10;99.90;;;;;;5035068;28;19948;-69
2022/10/21 09:44:39;;;;;;;;;;;19.20;99.90;;;;;;5034998;28;20317;-67
2022/10/21 09:47:14;;;;;;;;;;;19.20;99.90;;;;;;5034257;28;19917;-68
2022/10/21 09:49:45;;;;;;;;;;;19.20;99.90;;;;;;5034641;28;20036;-68
2022/10/21 09:52:11;;;;;;;;;;;19.10;99.90;;;;;;5026421;28;19971;-73
2022/10/21 09:54:39;;;;;;;;;;;19.20;99.90;;;;;;5026299;28;20526;-72
2022/10/21 09:57:09;;;;;;;;;;;19.10;99.90;;;;;;5025438;28;20361;-69
2022/10/21 09:59:49;;;;;;;;;;;19.20;99.90;;;;;;5026094;28;19921;-69
2022/10/21 10:02:17;;;;;;;;;;;19.10;99.90;;;;;;5026712;28;19913;-75
2022/10/21 10:04:44;;;;;;;;;;;19.20;99.90;;;;;;5025793;28;19917;-78
2022/10/21 10:07:40;;;;;;;;;;;19.10;99.90;;;;;;5026094;28;19920;-73
2022/10/21 10:10:26;;;;;;;;;;;19.10;99.90;;;;;;5016958;28;19919;-69
2022/10/21 10:12:57;;;;;;;;;;;19.10;99.90;;;;;;5025694;28;20388;-68
2022/10/21 10:15:29;;;;;;;;;;;19.10;99.90;;;;;;5025999;28;19913;-68
2022/10/21 10:17:56;;;;;;;;;;;19.10;99.90;;;;;;5025319;28;19934;-68
2022/10/21 10:20:23;;;;;;;;;;;19.10;99.90;;;;;;5025750;28;19994;-68
2022/10/21 10:22:57;;;;;;;;;;;19.00;99.90;;;;;;5025700;28;19913;-70
2022/10/21 10:25:25;;;;;;;;;;;19.10;99.90;;;;;;5025693;28;19913;-77
2022/10/21 10:28:01;;;;;;;;;;;19.00;99.90;;;;;;5025660;28;19913;-74
2022/10/21 10:30:50;;;;;;;;;;;19.00;99.90;;;;;;5025543;28;20007;-68
2022/10/21 10:33:21;;;;;;;;;;;19.00;99.90;;;;;;5017762;28;19921;-73
2022/10/21 10:35:49;;;;;;;;;;;19.00;99.90;;;;;;5025602;28;19925;-69
2022/10/21 10:38:39;;;;;;;;;;;19.00;99.90;;;;;;5025649;28;20031;-70
2022/10/21 10:41:14;;;;;;;;;;;18.90;99.90;;;;;;5019295;28;19959;-72
2022/10/21 10:43:45;;;;;;;;;;;18.90;99.90;;;;;;5026028;28;19991;-70
2022/10/21 10:46:17;;;;;;;;;;;18.90;99.90;;;;;;5025113;28;19983;-69
2022/10/21 10:48:45;;;;;;;;;;;18.90;99.90;;;;;;5025545;28;19932;-70
2022/10/21 10:51:27;;;;;;;;;;;18.90;99.90;;;;;;5025646;28;19921;-69
2022/10/21 10:54:01;;;;;;;;;;;18.90;99.90;;;;;;5025487;28;20369;-75
2022/10/21 10:56:43;;;;;;;;;;;18.90;99.90;;;;;;5024743;28;19921;-69
2022/10/21 10:59:10;;;;;;;;;;;18.90;99.90;;;;;;5025108;28;20019;-73
2022/10/21 11:01:38;;;;;;;;;;;18.90;99.90;;;;;;5025620;28;19913;-69
2022/10/21 11:04:14;;;;;;;;;;;18.90;99.90;;;;;;5025379;28;19920;-69
2022/10/21 11:06:47;;;;;;;;;;;18.90;99.90;;;;;;5025191;28;19920;-69
2022/10/21 11:09:14;;;;;;;;;;;18.90;99.90;;;;;;5024845;28;19998;-70
2022/10/21 11:11:44;;;;;;;;;;;18.90;99.90;;;;;;5005791;28;20323;-68
2022/10/21 11:14:15;;;;;;;;;;;18.90;99.90;;;;;;5005388;28;19914;-68
2022/10/21 11:16:59;;;;;;;;;;;18.90;99.90;;;;;;5005112;28;20725;-68
2022/10/21 11:19:29;;;;;;;;;;;18.90;99.90;;;;;;5005584;28;19922;-72
2022/10/21 11:22:05;;;;;;;;;;;18.90;99.90;;;;;;5004833;28;19913;-71
2022/10/21 11:24:34;;;;;;;;;;;18.90;99.90;;;;;;5004890;28;19974;-68
2022/10/21 11:27:04;;;;;;;;;;;18.90;99.90;;;;;;5005005;28;19920;-75
2022/10/21 11:29:31;;;;;;;;;;;18.90;99.90;;;;;;5005103;28;20390;-68
2022/10/21 11:32:07;;;;;;;;;;;18.90;99.90;;;;;;5004854;28;20007;-72
2022/10/21 11:34:38;;;;;;;;;;;18.90;99.90;;;;;;5004654;28;20279;-69
2022/10/21 11:37:28;;;;;;;;;;;18.90;99.90;;;;;;5004243;28;19920;-68
2022/10/21 11:40:13;;;;;;;;;;;18.80;99.90;;;;;;4985082;28;20061;-71
2022/10/21 11:42:41;;;;;;;;;;;18.80;99.90;;;;;;5018100;28;20368;-69
2022/10/21 11:45:11;;;;;;;;;;;18.90;99.90;;;;;;5024117;28;19920;-72
2022/10/21 11:47:56;;;;;;;;;;;18.80;99.90;;;;;;5024233;28;19932;-68
2022/10/21 11:50:34;;;;;;;;;;;18.90;99.90;;;;;;5023943;28;19924;-78
2022/10/21 11:53:10;;;;;;;;;;;18.80;99.90;;;;;;5039279;28;19990;-74
2022/10/21 11:55:57;;;;;;;;;;;18.80;99.90;;;;;;5023501;28;19920;-74
2022/10/21 11:58:33;;;;;;;;;;;18.80;99.90;;;;;;5026609;28;20280;-69
2022/10/21 12:01:09;;;;;;;;;;;18.80;99.90;;;;;;5024093;28;19917;-72
2022/10/21 12:03:54;;;;;;;;;;;18.80;99.90;;;;;;5023954;28;19920;-68
2022/10/21 12:06:29;;;;;;;;;;;18.80;99.90;;;;;;5024077;28;20469;-68
2022/10/21 12:09:01;;;;;;;;;;;18.80;99.90;;;;;;5025957;28;19948;-69
2022/10/21 12:11:38;;;;;;;;;;;18.80;99.90;;;;;;5032375;28;20357;-69
2022/10/21 12:14:23;;;;;;;;;;;18.70;99.90;;;;;;5032265;28;19909;-68
2022/10/21 12:16:51;;;;;;;;;;;18.70;99.90;;;;;;5031629;28;19913;-68
2022/10/21 12:19:18;;;;;;;;;;;18.70;99.90;;;;;;5032150;28;19928;-69
2022/10/21 12:21:45;;;;;;;;;;;18.70;99.90;;;;;;5031669;28;19971;-68
2022/10/21 12:24:31;;;;;;;;;;;18.70;99.90;;;;;;5031707;28;20344;-68
2022/10/21 12:27:07;;;;;;;;;;;18.70;99.90;;;;;;5031637;28;19971;-67
2022/10/21 12:29:36;;;;;;;;;;;18.80;99.90;;;;;;5032118;28;20002;-68
2022/10/21 12:32:21;;;;;;;;;;;18.80;99.90;;;;;;5032273;28;19932;-68
2022/10/21 12:34:48;;;;;;;;;;;18.80;99.90;;;;;;5031671;28;19909;-69
2022/10/21 12:37:33;;;;;;;;;;;18.80;99.90;;;;;;5032011;28;19997;-67
2022/10/21 12:40:11;;;;;;;;;;;18.80;99.90;;;;;;5031980;28;20287;-74
2022/10/21 12:42:42;;;;;;;;;;;18.80;99.90;;;;;;5031980;28;19917;-68
2022/10/21 12:45:29;;;;;;;;;;;18.80;99.90;;;;;;5031529;28;19943;-68
2022/10/21 12:47:56;;;;;;;;;;;18.80;99.90;;;;;;5031667;28;20016;-67
2022/10/21 12:50:28;;;;;;;;;;;18.80;99.90;;;;;;5030512;28;20264;-73
2022/10/21 12:53:10;;;;;;;;;;;18.80;99.90;;;;;;5031284;28;20348;-68
2022/10/21 12:55:41;;;;;;;;;;;18.80;99.90;;;;;;5031688;28;20358;-68
2022/10/21 12:58:19;;;;;;;;;;;18.80;99.90;;;;;;5031813;28;20012;-68
2022/10/21 13:00:46;;;;;;;;;;;18.80;99.90;;;;;;5031635;28;19913;-68
2022/10/21 13:03:20;;;;;;;;;;;18.70;99.90;;;;;;5031853;28;19917;-74
2022/10/21 13:05:48;;;;;;;;;;;18.70;99.90;;;;;;5031356;28;19909;-68
2022/10/21 13:08:27;;;;;;;;;;;18.70;99.90;;;;;;5031632;28;19963;-68
2022/10/21 13:11:05;;;;;;;;;;;18.70;99.90;;;;;;5031559;28;20275;-70
2022/10/21 13:13:34;;;;;;;;;;;18.70;99.90;;;;;;5031758;28;19913;-69
2022/10/21 13:16:20;;;;;;;;;;;18.60;99.90;;;;;;5031497;28;19915;-67
2022/10/21 13:18:50;;;;;;;;;;;18.70;99.90;;;;;;5031393;28;19968;-69
2022/10/21 13:21:25;;;;;;;;;;;18.60;99.90;;;;;;5031641;28;19913;-68
2022/10/21 13:23:53;;;;;;;;;;;18.60;99.90;;;;;;5031648;28;19925;-68
2022/10/21 13:26:29;;;;;;;;;;;18.60;99.90;;;;;;5031314;28;19915;-69
2022/10/21 13:28:57;;;;;;;;;;;18.50;99.90;;;;;;5031374;28;19916;-70
2022/10/21 13:31:23;;;;;;;;;;;18.50;99.90;;;;;;5031523;28;19917;-68
2022/10/21 13:33:51;;;;;;;;;;;18.50;99.90;;;;;;5035232;28;20008;-68
2022/10/21 13:36:31;;;;;;;;;;;18.50;99.90;;;;;;5034696;28;19913;-69
2022/10/21 13:38:59;;;;;;;;;;;18.50;99.90;;;;;;5035003;28;20287;-69
2022/10/21 13:41:27;;;;;;;;;;;18.50;99.90;;;;;;5035095;28;19916;-69
2022/10/21 13:43:58;;;;;;;;;;;18.50;99.90;;;;;;5035194;28;20444;-72
2022/10/21 13:46:29;;;;;;;;;;;18.50;99.90;;;;;;5017757;28;19971;-69
2022/10/21 13:48:59;;;;;;;;;;;18.50;99.90;;;;;;5014910;28;20001;-69
2022/10/21 13:51:28;;;;;;;;;;;18.50;99.90;;;;;;5015300;28;19921;-68
2022/10/21 13:53:58;;;;;;;;;;;18.50;99.90;;;;;;5015090;28;19964;-71
2022/10/21 13:56:43;;;;;;;;;;;18.40;99.90;;;;;;5014760;28;19921;-69
2022/10/21 13:59:26;;;;;;;;;;;18.50;99.90;;;;;;5014907;28;19979;-70
2022/10/21 14:01:54;;;;;;;;;;;18.40;99.90;;;;;;5015084;28;19913;-69
2022/10/21 14:04:23;;;;;;;;;;;18.40;99.90;;;;;;5014877;28;19917;-70
2022/10/21 14:07:05;;;;;;;;;;;18.40;99.90;;;;;;5014380;28;19913;-68
2022/10/21 14:09:34;;;;;;;;;;;18.40;99.90;;;;;;5014836;28;19910;-69
2022/10/21 14:12:01;;;;;;;;;;;18.50;99.90;;;;;;5014886;28;19913;-69
2022/10/21 14:14:29;;;;;;;;;;;18.40;99.90;;;;;;5014618;28;19913;-69
2022/10/21 14:16:57;;;;;;;;;;;18.40;99.90;;;;;;5014132;28;19917;-72
2022/10/21 14:19:26;;;;;;;;;;;18.40;99.90;;;;;;5014692;28;19968;-69
2022/10/21 14:21:54;;;;;;;;;;;18.40;99.90;;;;;;5014452;28;19917;-77
2022/10/21 14:24:25;;;;;;;;;;;18.40;99.90;;;;;;5014639;28;20000;-69
2022/10/21 14:26:52;;;;;;;;;;;18.30;99.90;;;;;;5014127;28;19913;-69
2022/10/21 14:29:27;;;;;;;;;;;18.30;99.90;;;;;;5014488;28;19910;-71
2022/10/21 14:31:54;;;;;;;;;;;18.30;99.90;;;;;;5014577;28;19913;-70
2022/10/21 14:34:25;;;;;;;;;;;18.30;99.90;;;;;;5014490;28;19914;-70